Time;durP1;ratioP1;P1;durP2;ratioP2;P2;SDS_P1;SDS_P2;PMS_P1;PMS_P2;Temp;Humidity;BMP_temperature;BMP_pressure;BME280_temperature;BME280_humidity;BME280_pressure;Samples;Min_cycle;Max_cycle;Signal;HPM_P1;HPM_P2
2022/06/18 00:01:57;;;;;;;1.40;1.00;;;;;;;20.26;44.62;100236.13;4440839;32;33480;-84
2022/06/18 00:04:26;;;;;;;2.00;0.95;;;;;;;20.15;45.21;100241.88;4436460;32;33348;-84
2022/06/18 00:06:58;;;;;;;1.62;0.82;;;;;;;20.11;45.42;100229.78;4443051;32;33993;-84
2022/06/18 00:09:29;;;;;;;7.75;1.08;;;;;;;20.15;45.36;100233.09;4445049;32;34318;-84
2022/06/18 00:14:49;;;;;;;;;;;;;;;19.87;46.14;100241.38;4443140;32;34240;-84
2022/06/18 00:17:19;;;;;;;1.27;0.88;;;;;;;19.80;46.19;100239.00;4432532;32;33566;-85
2022/06/18 00:19:49;;;;;;;1.10;0.80;;;;;;;19.68;46.95;100241.28;4441620;32;34129;-84
2022/06/18 00:22:21;;;;;;;0.77;0.77;;;;;;;19.53;47.20;100248.88;4430930;32;33496;-85
2022/06/18 00:24:50;;;;;;;1.25;1.10;;;;;;;19.62;47.15;100237.97;4430995;32;32718;-84
2022/06/18 00:27:21;;;;;;;0.85;0.80;;;;;;;19.45;47.66;100250.97;4431555;32;36944;-84
2022/06/18 00:29:52;;;;;;;1.15;0.98;;;;;;;19.48;47.65;100245.56;4442829;32;34205;-83
2022/06/18 00:32:21;;;;;;;1.95;0.90;;;;;;;19.64;47.62;100247.56;4435248;32;33776;-84
2022/06/18 00:34:50;;;;;;;1.23;0.90;;;;;;;19.33;48.30;100246.19;4431393;32;33395;-84
2022/06/18 00:37:19;;;;;;;0.80;0.80;;;;;;;19.52;47.76;100247.16;4437583;32;33994;-84
2022/06/18 00:39:52;;;;;;;0.90;0.90;;;;;;;19.44;48.05;100245.75;4438922;32;35078;-84
2022/06/18 00:42:28;;;;;;;1.87;0.95;;;;;;;19.34;48.19;100240.03;4443904;32;34055;-83
2022/06/18 00:45:01;;;;;;;1.15;0.95;;;;;;;19.41;48.08;100241.47;4445518;32;34145;-85
2022/06/18 00:47:34;;;;;;;0.98;0.93;;;;;;;19.29;48.41;100240.19;4435367;32;33998;-83
2022/06/18 00:50:07;;;;;;;1.92;1.08;;;;;;;19.46;48.34;100236.87;4429562;32;33970;-83
2022/06/18 00:52:40;;;;;;;2.95;1.30;;;;;;;19.35;48.63;100241.72;4440476;32;33762;-84
2022/06/18 00:55:13;;;;;;;1.55;0.90;;;;;;;19.42;48.63;100242.34;4438468;32;34405;-83
2022/06/18 00:57:50;;;;;;;1.27;0.95;;;;;;;19.41;48.64;100246.75;4441398;32;33682;-85
2022/06/18 01:00:24;;;;;;;1.10;0.90;;;;;;;19.26;49.05;100242.12;4428471;32;33182;-84
2022/06/18 01:02:52;;;;;;;2.45;1.12;;;;;;;19.27;48.84;100241.19;4433674;32;33956;-85
2022/06/18 01:05:24;;;;;;;1.25;1.02;;;;;;;19.31;48.81;100241.00;4433299;32;33331;-85
2022/06/18 01:07:55;;;;;;;1.98;1.00;;;;;;;19.17;49.15;100236.28;4441207;32;34493;-83
2022/06/18 01:10:30;;;;;;;1.00;1.00;;;;;;;19.18;49.28;100242.41;4428531;32;34748;-83
2022/06/18 01:13:02;;;;;;;1.50;1.00;;;;;;;19.19;49.17;100246.75;4439270;32;34559;-85
2022/06/18 01:15:36;;;;;;;1.12;1.00;;;;;;;19.15;49.16;100246.00;4440089;32;33768;-84
2022/06/18 01:18:06;;;;;;;1.15;0.80;;;;;;;19.18;49.07;100243.28;4440358;32;33725;-85
2022/06/18 01:20:42;;;;;;;1.67;1.00;;;;;;;19.16;49.20;100233.72;4441681;32;34136;-84
2022/06/18 01:23:15;;;;;;;4.12;1.52;;;;;;;18.97;49.74;100238.88;4430711;32;33522;-84
2022/06/18 01:25:47;;;;;;;1.52;1.10;;;;;;;19.00;49.56;100244.00;4430537;32;33120;-84
2022/06/18 01:28:18;;;;;;;1.58;1.12;;;;;;;19.08;49.52;100243.69;4438387;32;33698;-84
2022/06/18 01:30:48;;;;;;;1.45;0.93;;;;;;;19.10;49.40;100240.06;4432580;32;34221;-84
2022/06/18 01:33:18;;;;;;;1.75;1.00;;;;;;;19.06;49.51;100243.72;4433909;32;34551;-83
2022/06/18 01:35:49;;;;;;;1.40;1.10;;;;;;;19.10;49.43;100236.59;4417949;32;34132;-85
2022/06/18 01:38:18;;;;;;;;;;;;;;;18.92;49.97;100236.41;4430906;32;33787;-84
2022/06/18 01:40:52;;;;;;;1.55;0.88;;;;;;;18.90;50.19;100237.37;4445028;32;33929;-85
2022/06/18 01:43:22;;;;;;;1.85;0.95;;;;;;;19.02;49.80;100230.78;4439938;32;34694;-84
2022/06/18 01:45:55;;;;;;;1.10;1.00;;;;;;;19.11;49.63;100230.41;4430243;32;33507;-85
2022/06/18 01:48:26;;;;;;;1.62;1.02;;;;;;;18.93;50.08;100227.59;4441515;32;34019;-84
2022/06/18 01:50:59;;;;;;;1.58;1.10;;;;;;;19.05;50.04;100233.28;4435707;32;33888;-83
2022/06/18 01:53:31;;;;;;;0.90;0.80;;;;;;;19.10;49.90;100226.09;4435651;32;33892;-86
2022/06/18 01:56:04;;;;;;;1.23;1.10;;;;;;;18.95;50.50;100224.91;4440949;32;33013;-83
2022/06/18 01:58:38;;;;;;;1.30;0.93;;;;;;;19.22;49.75;100230.00;4436904;32;33996;-84
2022/06/18 02:01:12;;;;;;;2.60;1.25;;;;;;;19.22;49.71;100230.00;4435848;32;33911;-83
2022/06/18 02:03:41;;;;;;;0.90;0.90;;;;;;;19.04;49.95;100229.81;4431461;32;33414;-84
2022/06/18 02:06:10;;;;;;;2.17;1.02;;;;;;;19.03;49.54;100225.47;4438706;32;33434;-83
2022/06/18 02:08:39;;;;;;;1.50;1.12;;;;;;;19.03;49.87;100221.97;4444261;32;34530;-84
2022/06/18 02:11:12;;;;;;;2.50;1.20;;;;;;;18.91;50.03;100224.16;4437043;32;34482;-83
2022/06/18 02:13:45;;;;;;;1.45;0.90;;;;;;;18.75;50.46;100226.50;4438492;32;33776;-85
2022/06/18 02:16:17;;;;;;;1.52;0.90;;;;;;;18.64;51.10;100219.94;4440889;32;33865;-84
2022/06/18 02:18:46;;;;;;;1.02;0.90;;;;;;;18.56;51.21;100215.00;4432421;32;34239;-84
2022/06/18 02:21:21;;;;;;;1.67;1.20;;;;;;;18.61;51.25;100220.94;4432118;32;33858;-84
2022/06/18 02:23:51;;;;;;;1.23;0.80;;;;;;;18.46;51.65;100221.47;4438647;32;33893;-84
2022/06/18 02:26:22;;;;;;;0.80;0.80;;;;;;;18.62;51.26;100212.12;4439851;32;32703;-85
2022/06/18 02:28:53;;;;;;;1.30;1.00;;;;;;;18.66;51.13;100216.34;4440527;32;34188;-83
2022/06/18 02:31:25;;;;;;;1.20;1.08;;;;;;;18.57;51.48;100218.47;4433259;32;34650;-85
2022/06/18 02:33:56;;;;;;;1.98;0.98;;;;;;;18.69;51.23;100208.34;4432566;32;33970;-83
2022/06/18 02:36:31;;;;;;;1.65;0.90;;;;;;;18.54;51.77;100214.19;4430912;32;33627;-84
2022/06/18 02:39:06;;;;;;;1.23;1.00;;;;;;;18.65;51.56;100214.66;4421803;32;33479;-85
2022/06/18 02:41:37;;;;;;;2.62;1.70;;;;;;;18.62;51.58;100209.50;4433028;32;33508;-83
2022/06/18 02:44:06;;;;;;;1.10;1.00;;;;;;;18.69;51.34;100221.47;4438371;32;33777;-84
2022/06/18 02:46:35;;;;;;;0.95;0.90;;;;;;;18.69;51.14;100216.22;4442177;32;33772;-83
2022/06/18 02:49:06;;;;;;;3.22;1.17;;;;;;;18.46;52.15;100217.09;4419258;32;32114;-83
2022/06/18 02:51:36;;;;;;;1.42;1.08;;;;;;;18.40;52.32;100217.31;4437548;32;33251;-84
2022/06/18 02:54:05;;;;;;;2.37;1.40;;;;;;;18.35;52.76;100211.38;4445233;32;33768;-83
2022/06/18 02:56:35;;;;;;;1.65;1.23;;;;;;;18.35;52.85;100216.63;4443015;32;33325;-84
2022/06/18 02:59:06;;;;;;;;;;;;;;;18.47;52.61;100220.59;4438359;32;33044;-83
2022/06/18 03:01:37;;;;;;;1.00;0.90;;;;;;;18.46;52.70;100221.47;4440892;32;33568;-84
2022/06/18 03:04:06;;;;;;;1.40;1.17;;;;;;;18.40;52.60;100221.72;4430979;32;34736;-84
2022/06/18 03:06:35;;;;;;;1.73;1.10;;;;;;;18.42;52.64;100230.41;4452868;32;33185;-83
2022/06/18 03:09:04;;;;;;;2.67;1.23;;;;;;;18.46;52.74;100216.22;4435111;32;33728;-83
2022/06/18 03:14:22;;;;;;;1.42;1.25;;;;;;;18.67;52.55;100219.81;4441840;32;33469;-83
2022/06/18 03:16:51;;;;;;;2.95;1.40;;;;;;;18.52;52.85;100218.62;4435997;32;33757;-84
2022/06/18 03:19:29;;;;;;;1.95;1.37;;;;;;;18.43;53.28;100225.09;4431390;32;33913;-84
2022/06/18 03:22:03;;;;;;;1.77;1.20;;;;;;;18.50;53.15;100221.31;4439241;32;33734;-83
2022/06/18 03:24:32;;;;;;;3.42;1.20;;;;;;;18.44;53.38;100220.72;4434961;32;33867;-83
2022/06/18 03:27:01;;;;;;;1.48;1.10;;;;;;;18.63;53.17;100226.09;4442231;32;34172;-84
2022/06/18 03:29:31;;;;;;;2.55;1.37;;;;;;;18.59;53.15;100227.16;4439426;32;33684;-84
2022/06/18 03:32:01;;;;;;;1.70;1.10;;;;;;;18.41;53.89;100232.19;4438867;32;31384;-84
2022/06/18 03:34:31;;;;;;;;;;;;;;;18.54;53.41;100227.31;4440981;32;34421;-84
2022/06/18 03:37:00;;;;;;;1.15;1.00;;;;;;;18.48;53.89;100235.41;4435382;32;33190;-85
2022/06/18 03:39:30;;;;;;;0.90;0.88;;;;;;;18.59;53.66;100237.66;4435123;32;35154;-84
2022/06/18 03:42:00;;;;;;;1.67;1.17;;;;;;;18.40;54.46;100232.22;4448341;32;35567;-84
2022/06/18 03:44:29;;;;;;;1.05;0.95;;;;;;;18.64;53.82;100230.47;4443370;32;33899;-84
2022/06/18 03:47:00;;;;;;;1.73;1.20;;;;;;;18.68;53.80;100232.91;4448264;32;34061;-84
2022/06/18 03:49:33;;;;;;;1.45;1.27;;;;;;;18.67;53.95;100230.34;4453775;32;33507;-83
2022/06/18 03:52:04;;;;;;;1.20;1.10;;;;;;;18.79;53.59;100234.31;4438421;32;34767;-84
2022/06/18 03:54:33;;;;;;;1.12;1.00;;;;;;;18.76;53.82;100225.62;4432540;32;34443;-84
2022/06/18 03:57:03;;;;;;;1.90;1.27;;;;;;;18.81;53.78;100229.84;4441506;32;33332;-84
2022/06/18 03:59:33;;;;;;;4.40;2.15;;;;;;;18.80;53.75;100229.00;4431827;32;33044;-83
2022/06/18 04:02:04;;;;;;;2.05;1.15;;;;;;;18.96;53.46;100235.34;4440689;32;34127;-84
2022/06/18 04:04:34;;;;;;;2.05;1.10;;;;;;;19.12;51.86;100238.25;4433303;32;33804;-84
2022/06/18 04:07:03;;;;;;;2.50;0.90;;;;;;;19.10;51.80;100234.81;4437766;32;33309;-84
2022/06/18 04:09:35;;;;;;;1.83;1.33;;;;;;;19.18;52.31;100239.78;4441657;32;35570;-84
2022/06/18 04:12:07;;;;;;;2.12;1.25;;;;;;;19.42;52.06;100243.19;4430987;32;34004;-84
2022/06/18 04:14:39;;;;;;;2.17;0.95;;;;;;;19.42;52.17;100243.19;4436510;32;33423;-84
2022/06/18 04:17:13;;;;;;;2.17;1.25;;;;;;;19.55;50.98;100239.16;4433908;32;33596;-85
2022/06/18 04:19:43;;;;;;;1.40;1.10;;;;;;;19.54;51.81;100247.94;4444215;32;33751;-84
2022/06/18 04:22:12;;;;;;;3.37;1.37;;;;;;;19.74;51.51;100246.28;4434634;32;34026;-85
2022/06/18 04:24:42;;;;;;;2.72;1.12;;;;;;;19.75;51.01;100232.22;4435067;32;33501;-85
2022/06/18 04:27:11;;;;;;;2.53;1.10;;;;;;;19.76;51.61;100239.19;4446414;32;33419;-85
2022/06/18 04:29:40;;;;;;;2.80;1.20;;;;;;;19.76;51.07;100237.41;4438124;32;33639;-84
2022/06/18 04:32:09;;;;;;;1.95;1.00;;;;;;;20.03;50.42;100247.69;4437992;32;34044;-85
2022/06/18 04:34:39;;;;;;;2.08;1.08;;;;;;;20.08;50.78;100244.84;4440995;32;33675;-85
2022/06/18 04:37:08;;;;;;;1.75;1.15;;;;;;;20.46;49.91;100245.78;4431603;32;33145;-83
2022/06/18 04:39:37;;;;;;;1.08;0.82;;;;;;;21.16;48.35;100249.56;4432590;32;33793;-84
2022/06/18 04:42:06;;;;;;;1.52;1.00;;;;;;;21.71;47.47;100248.69;4442239;32;34078;-84
2022/06/18 04:44:36;;;;;;;1.50;0.93;;;;;;;22.24;46.03;100252.16;4436758;32;34564;-85
2022/06/18 04:47:05;;;;;;;1.58;1.00;;;;;;;22.60;44.72;100254.63;4446843;32;33298;-84
2022/06/18 04:49:34;;;;;;;1.60;0.90;;;;;;;23.29;42.92;100253.47;4435395;32;33879;-85
2022/06/18 04:52:08;;;;;;;2.95;1.40;;;;;;;23.67;42.02;100253.06;4432761;32;33619;-85
2022/06/18 04:54:40;;;;;;;2.03;1.25;;;;;;;24.17;41.29;100254.50;4436421;32;34373;-84
2022/06/18 04:57:09;;;;;;;1.37;0.77;;;;;;;24.75;39.87;100265.16;4421283;32;32639;-85
2022/06/18 04:59:41;;;;;;;1.17;0.82;;;;;;;25.17;39.24;100268.66;4446731;32;34642;-84
2022/06/18 05:02:23;;;;;;;1.17;0.80;;;;;;;25.29;38.90;100267.91;4437887;32;33559;-85
2022/06/18 05:04:54;;;;;;;1.10;0.90;;;;;;;25.32;37.95;100262.38;4436303;32;33704;-84
2022/06/18 05:07:25;;;;;;;1.87;1.05;;;;;;;24.47;39.79;100266.88;4435419;32;33343;-84
2022/06/18 05:09:56;;;;;;;2.12;1.23;;;;;;;24.01;41.61;100266.97;4425433;32;33115;-84
2022/06/18 05:12:26;;;;;;;2.42;1.30;;;;;;;24.59;41.32;100263.44;4435927;32;33735;-85
2022/06/18 05:14:55;;;;;;;1.98;0.98;;;;;;;24.61;41.33;100266.00;4446716;32;33590;-84
2022/06/18 05:17:26;;;;;;;1.52;1.23;;;;;;;24.25;41.63;100270.78;4439924;32;33307;-85
2022/06/18 05:19:56;;;;;;;0.95;0.80;;;;;;;24.47;41.13;100270.38;4432187;32;33967;-84
2022/06/18 05:22:27;;;;;;;0.75;0.75;;;;;;;24.73;40.16;100272.34;4433940;32;34021;-85
2022/06/18 05:24:58;;;;;;;1.30;0.90;;;;;;;25.09;39.99;100285.09;4436629;32;33837;-85
2022/06/18 05:27:33;;;;;;;3.72;1.02;;;;;;;25.35;38.87;100280.78;4430534;32;33985;-84
2022/06/18 05:30:03;;;;;;;1.73;0.80;;;;;;;25.54;38.54;100283.94;4431632;32;33472;-84
2022/06/18 05:32:34;;;;;;;0.82;0.70;;;;;;;25.83;38.61;100288.25;4433082;32;34060;-85
2022/06/18 05:35:04;;;;;;;0.77;0.73;;;;;;;25.88;36.58;100286.19;4435079;32;33832;-85
2022/06/18 05:37:35;;;;;;;2.85;0.93;;;;;;;25.77;37.73;100289.50;4437648;32;32390;-84
2022/06/18 05:40:05;;;;;;;1.67;0.85;;;;;;;25.90;36.99;100285.13;4438791;32;34584;-86
2022/06/18 05:42:34;;;;;;;0.98;0.88;;;;;;;26.01;37.09;100291.50;4434626;32;33898;-85
2022/06/18 05:45:04;;;;;;;1.80;0.88;;;;;;;25.82;38.01;100295.38;4442030;32;32920;-84
2022/06/18 05:47:36;;;;;;;1.90;1.12;;;;;;;25.59;38.50;100290.72;4430794;32;33166;-84
2022/06/18 05:50:08;;;;;;;1.80;0.90;;;;;;;25.87;38.35;100301.25;4432665;32;33997;-84
2022/06/18 05:52:39;;;;;;;2.10;0.73;;;;;;;26.00;37.42;100300.44;4441689;32;34762;-85
2022/06/18 05:55:09;;;;;;;1.62;1.02;;;;;;;26.21;36.93;100303.44;4444201;32;33842;-84
2022/06/18 05:57:45;;;;;;;2.87;0.88;;;;;;;26.44;36.72;100299.19;4439868;32;33562;-85
2022/06/18 06:00:16;;;;;;;1.80;0.98;;;;;;;26.63;36.56;100304.09;4430040;32;33835;-85
2022/06/18 06:02:48;;;;;;;1.55;0.90;;;;;;;26.61;34.59;100293.56;4432349;32;33315;-85
2022/06/18 06:05:17;;;;;;;4.65;1.17;;;;;;;26.27;34.75;100293.22;4444664;32;34535;-84
2022/06/18 06:07:49;;;;;;;2.20;1.00;;;;;;;26.04;35.88;100299.28;4444467;32;33450;-85
2022/06/18 06:13:11;;;;;;;1.02;0.82;;;;;;;25.61;37.93;100299.44;4441906;32;33851;-83
2022/06/18 06:15:40;;;;;;;2.22;1.25;;;;;;;25.52;36.45;100300.94;4437957;32;34949;-84
2022/06/18 06:18:11;;;;;;;1.15;0.93;;;;;;;25.49;35.17;100296.66;4433571;32;33507;-84
2022/06/18 06:20:42;;;;;;;0.80;0.80;;;;;;;25.52;35.07;100298.28;4441453;32;34762;-86
2022/06/18 06:23:12;;;;;;;;;;;;;;;25.59;34.74;100296.03;4438642;32;34689;-85
2022/06/18 06:25:43;;;;;;;1.67;1.12;;;;;;;25.60;33.58;100300.41;4431480;32;32971;-85
2022/06/18 06:28:14;;;;;;;2.73;1.27;;;;;;;25.17;33.85;100295.22;4433258;32;35209;-83
2022/06/18 06:30:43;;;;;;;2.15;1.10;;;;;;;25.55;33.99;100306.03;4442764;32;33923;-86
2022/06/18 06:33:12;;;;;;;2.00;1.15;;;;;;;25.53;33.93;100302.63;4431337;32;33975;-84
2022/06/18 06:35:42;;;;;;;1.87;1.20;;;;;;;25.40;34.06;100302.59;4450696;32;33948;-83
2022/06/18 06:38:13;;;;;;;2.15;1.10;;;;;;;25.04;33.65;100308.44;4439434;32;33272;-84
2022/06/18 06:40:43;;;;;;;1.15;0.90;;;;;;;25.08;34.26;100308.16;4436203;32;33066;-84
2022/06/18 06:43:13;;;;;;;1.85;1.10;;;;;;;25.11;34.22;100305.28;4432486;32;34342;-83
2022/06/18 06:45:43;;;;;;;1.90;1.02;;;;;;;25.18;34.77;100296.94;4437976;32;32126;-84
2022/06/18 06:48:14;;;;;;;1.62;1.00;;;;;;;24.86;34.83;100299.81;4447971;32;33079;-85
2022/06/18 06:50:46;;;;;;;1.10;1.00;;;;;;;24.76;35.26;100307.50;4439180;32;33560;-84
2022/06/18 06:53:16;;;;;;;1.55;0.93;;;;;;;24.99;35.40;100306.06;4442822;32;34627;-85
2022/06/18 06:58:31;;;;;;;1.83;0.98;;;;;;;24.80;35.95;100306.38;4444460;32;33266;-84
2022/06/18 07:01:00;;;;;;;2.37;1.50;;;;;;;25.05;36.86;100305.66;4441503;32;34713;-83
2022/06/18 07:03:31;;;;;;;2.10;1.17;;;;;;;25.32;35.54;100303.09;4438607;32;34408;-84
2022/06/18 07:06:02;;;;;;;3.08;0.90;;;;;;;25.53;34.57;100308.78;4433908;32;33987;-84
2022/06/18 07:08:32;;;;;;;;;;;;;;;25.11;34.36;100299.13;4433569;32;33489;-86
2022/06/18 07:11:01;;;;;;;1.62;0.98;;;;;;;24.95;34.62;100299.25;4431456;32;35927;-85
2022/06/18 07:13:31;;;;;;;1.73;1.08;;;;;;;24.66;35.71;100291.31;4430842;32;33904;-83
2022/06/18 07:15:59;;;;;;;2.33;1.20;;;;;;;25.10;34.76;100292.97;4433410;32;34455;-86
2022/06/18 07:18:32;;;;;;;2.45;1.10;;;;;;;25.02;35.47;100297.06;4439756;32;34029;-85
2022/06/18 07:21:02;;;;;;;1.02;0.80;;;;;;;24.91;35.69;100293.28;4433336;32;34042;-84
2022/06/18 07:23:33;;;;;;;1.75;1.08;;;;;;;24.86;36.52;100291.84;4434311;32;33278;-85
2022/06/18 07:26:02;;;;;;;1.95;1.08;;;;;;;25.02;36.74;100297.91;4437191;32;33302;-84
2022/06/18 07:28:30;;;;;;;2.25;1.42;;;;;;;24.94;35.65;100294.87;4433916;32;33293;-85
2022/06/18 07:31:00;;;;;;;1.65;1.00;;;;;;;25.03;35.21;100304.94;4440904;32;33918;-85
2022/06/18 07:33:30;;;;;;;2.20;1.23;;;;;;;24.83;36.30;100297.34;4442205;32;34763;-84
2022/06/18 07:35:58;;;;;;;2.78;0.93;;;;;;;24.89;36.16;100294.34;4432711;32;33778;-85
2022/06/18 07:38:27;;;;;;;2.53;1.23;;;;;;;25.14;35.45;100301.56;4435769;32;33649;-83
2022/06/18 07:40:58;;;;;;;1.48;1.10;;;;;;;25.06;35.80;100293.25;4438923;32;34479;-84
2022/06/18 07:43:34;;;;;;;1.90;1.20;;;;;;;24.85;36.34;100293.66;4441294;32;33609;-85
2022/06/18 07:46:04;;;;;;;4.47;1.25;;;;;;;25.09;36.06;100291.25;4437966;32;34635;-85
2022/06/18 07:48:34;;;;;;;1.23;1.00;;;;;;;24.83;35.01;100292.06;4430011;32;34039;-84
2022/06/18 07:51:03;;;;;;;2.55;1.40;;;;;;;24.51;35.91;100296.72;4435175;32;33913;-84
2022/06/18 07:53:32;;;;;;;2.12;1.00;;;;;;;24.88;36.23;100293.47;4432690;32;34838;-85
2022/06/18 07:56:03;;;;;;;1.50;0.90;;;;;;;24.68;36.69;100297.38;4439771;32;33834;-85
2022/06/18 07:58:33;;;;;;;2.35;1.12;;;;;;;24.91;36.66;100297.72;4434627;32;33748;-84
2022/06/18 08:01:02;;;;;;;1.65;1.48;;;;;;;25.07;33.88;100300.25;4435616;32;33827;-85
2022/06/18 08:03:31;;;;;;;2.35;1.33;;;;;;;25.16;35.37;100297.03;4430717;32;34121;-85
2022/06/18 08:06:01;;;;;;;3.50;1.27;;;;;;;25.25;35.78;100285.84;4431643;32;33523;-84
2022/06/18 08:08:30;;;;;;;1.27;0.82;;;;;;;25.11;35.73;100281.37;4431083;32;33141;-83
2022/06/18 08:11:06;;;;;;;2.12;0.95;;;;;;;25.24;36.19;100284.13;4440367;32;33484;-84
2022/06/18 08:13:35;;;;;;;1.70;0.98;;;;;;;25.19;35.85;100288.03;4444199;32;33925;-84
2022/06/18 08:16:05;;;;;;;1.25;0.82;;;;;;;25.03;35.79;100283.69;4436131;32;33640;-84
2022/06/18 08:18:34;;;;;;;1.48;0.90;;;;;;;25.02;35.21;100281.97;4435336;32;33381;-85
2022/06/18 08:21:13;;;;;;;1.50;0.98;;;;;;;25.23;34.92;100277.13;4453585;32;33746;-84
2022/06/18 08:23:42;;;;;;;1.83;0.93;;;;;;;25.21;34.54;100275.53;4441266;32;33989;-85
2022/06/18 08:26:13;;;;;;;2.05;1.00;;;;;;;25.25;34.61;100274.34;4444051;32;32961;-85
2022/06/18 08:28:41;;;;;;;;;;;;;;;25.44;35.86;100279.31;4431930;32;33611;-85
2022/06/18 08:31:11;;;;;;;1.08;0.62;;;;;;;25.58;35.41;100275.75;4429585;32;34163;-85
2022/06/18 08:33:41;;;;;;;1.27;0.80;;;;;;;25.29;34.01;100279.38;4437269;32;32715;-86
2022/06/18 08:36:12;;;;;;;1.25;0.82;;;;;;;25.58;34.57;100276.59;4431343;32;33611;-85
2022/06/18 08:38:41;;;;;;;;;;;;;;;25.65;34.09;100287.69;4447477;32;33422;-86
2022/06/18 08:41:40;;;;;;;1.10;0.68;;;;;;;25.50;33.30;100277.13;4444751;32;35002;-86
2022/06/18 08:44:26;;;;;;;1.35;0.90;;;;;;;25.80;33.51;100270.69;4444073;32;34949;-86
2022/06/18 08:47:03;;;;;;;0.98;0.82;;;;;;;25.75;32.54;100265.69;4439911;32;34118;-85
2022/06/18 08:49:54;;;;;;;1.55;0.73;;;;;;;25.73;33.63;100257.00;4447705;32;33437;-84
2022/06/18 08:52:41;;;;;;;0.60;0.60;;;;;;;25.72;33.22;100259.75;4433672;32;33357;-85
2022/06/18 08:55:15;;;;;;;2.05;0.70;;;;;;;25.96;31.25;100259.91;4441371;32;33959;-86
2022/06/18 08:57:49;;;;;;;1.98;0.85;;;;;;;26.24;32.59;100256.22;4441499;32;33545;-85
2022/06/18 09:00:22;;;;;;;2.80;0.80;;;;;;;26.41;31.99;100252.38;4439631;32;33261;-85
2022/06/18 09:02:55;;;;;;;0.80;0.70;;;;;;;26.34;32.24;100245.78;4445645;32;33930;-84
2022/06/18 09:05:52;;;;;;;1.73;0.70;;;;;;;26.60;33.60;100246.63;4436624;32;34736;-85
2022/06/18 09:08:36;;;;;;;0.90;0.80;;;;;;;26.54;33.78;100255.03;4441252;32;33798;-84
2022/06/18 09:11:19;;;;;;;1.60;0.80;;;;;;;26.16;32.46;100255.88;4436630;32;34308;-87
2022/06/18 09:13:57;;;;;;;1.00;0.88;;;;;;;26.22;32.75;100252.81;4431743;32;33827;-87
2022/06/18 09:16:33;;;;;;;0.88;0.60;;;;;;;26.28;33.84;100243.53;4437517;32;33874;-85
2022/06/18 09:19:04;;;;;;;1.83;1.00;;;;;;;26.43;31.76;100231.81;4449154;32;33601;-84
2022/06/18 09:21:36;;;;;;;0.95;0.80;;;;;;;26.46;30.70;100241.38;4448053;32;33482;-86
2022/06/18 09:24:07;;;;;;;0.88;0.57;;;;;;;26.33;32.56;100246.72;4438206;32;33914;-85
2022/06/18 09:26:39;;;;;;;0.75;0.60;;;;;;;26.16;29.38;100234.59;4431670;32;33508;-84
2022/06/18 09:29:14;;;;;;;0.98;0.57;;;;;;;25.95;30.91;100240.47;4430607;32;33284;-85
2022/06/18 09:31:47;;;;;;;2.22;0.93;;;;;;;26.10;30.69;100243.03;4424321;32;158754;-85
2022/06/18 09:34:23;;;;;;;1.12;0.70;;;;;;;26.41;30.49;100233.75;4430934;32;33909;-85
2022/06/18 09:36:59;;;;;;;1.12;0.60;;;;;;;26.64;30.40;100234.78;4438638;32;34070;-85
2022/06/18 09:39:35;;;;;;;0.47;0.45;;;;;;;26.85;30.87;100226.25;4435958;32;33621;-85
2022/06/18 09:42:07;;;;;;;0.90;0.70;;;;;;;26.70;30.45;100228.16;4432042;32;34139;-86
2022/06/18 09:44:41;;;;;;;0.70;0.50;;;;;;;26.69;30.00;100227.34;4450017;32;33979;-85
2022/06/18 09:47:13;;;;;;;0.95;0.60;;;;;;;26.13;29.67;100229.50;4444766;32;33930;-85
2022/06/18 09:49:44;;;;;;;1.90;0.80;;;;;;;26.81;28.88;100226.44;4443946;32;33582;-87
2022/06/18 09:52:15;;;;;;;0.80;0.68;;;;;;;26.92;30.54;100224.84;4457608;32;32529;-85
2022/06/18 09:54:51;;;;;;;1.10;0.62;;;;;;;26.88;30.26;100224.19;4448249;32;33971;-85
2022/06/18 09:57:22;;;;;;;1.00;0.70;;;;;;;26.95;29.14;100224.59;4433867;32;33690;-85
2022/06/18 10:00:03;;;;;;;0.93;0.62;;;;;;;27.13;29.12;100219.72;4431264;32;33933;-84
2022/06/18 10:02:41;;;;;;;0.73;0.55;;;;;;;26.91;30.79;100215.12;4430942;32;32590;-85
2022/06/18 10:08:04;;;;;;;0.40;0.40;;;;;;;26.66;29.94;100214.25;4453869;32;33499;-85
2022/06/18 10:10:34;;;;;;;1.48;0.95;;;;;;;26.68;30.84;100212.34;4444845;32;34002;-85
2022/06/18 10:13:07;;;;;;;0.88;0.60;;;;;;;26.64;30.70;100208.19;4448194;32;32925;-86
2022/06/18 10:15:37;;;;;;;1.52;0.60;;;;;;;26.94;30.33;100201.59;4453783;32;33619;-85
2022/06/18 10:18:20;;;;;;;2.58;0.62;;;;;;;27.06;29.15;100198.00;4456275;32;33739;-85
2022/06/18 10:20:54;;;;;;;2.08;1.27;;;;;;;27.14;28.08;100193.00;4459313;32;33549;-85
2022/06/18 10:23:36;;;;;;;1.30;0.65;;;;;;;26.96;28.85;100192.53;4453519;32;33050;-85
2022/06/18 10:26:11;;;;;;;0.85;0.60;;;;;;;27.02;29.18;100188.56;4453251;32;33932;-87
2022/06/18 10:28:52;;;;;;;0.40;0.40;;;;;;;26.66;30.01;100179.66;4459598;32;33913;-85
2022/06/18 10:31:29;;;;;;;0.68;0.60;;;;;;;26.77;30.11;100173.53;4454946;32;34383;-86
2022/06/18 10:34:09;;;;;;;1.37;0.77;;;;;;;27.49;30.11;100178.00;4449086;32;33618;-85
2022/06/18 10:36:43;;;;;;;2.77;0.40;;;;;;;27.67;29.33;100171.28;4458103;32;34524;-85
2022/06/18 10:39:19;;;;;;;0.60;0.50;;;;;;;27.59;29.97;100174.53;4446776;32;33902;-85
2022/06/18 10:42:01;;;;;;;0.40;0.40;;;;;;;27.92;29.05;100164.06;4453117;32;33502;-85
2022/06/18 10:44:40;;;;;;;0.73;0.50;;;;;;;27.89;29.05;100165.16;4451699;32;34149;-87
2022/06/18 10:47:14;;;;;;;0.75;0.55;;;;;;;27.72;28.60;100168.25;4453248;32;33905;-84
2022/06/18 10:49:43;;;;;;;0.40;0.40;;;;;;;27.80;28.28;100174.69;4438453;32;33617;-87
2022/06/18 10:52:21;;;;;;;1.27;0.57;;;;;;;27.99;29.50;100167.94;4438365;32;33749;-86
2022/06/18 10:54:50;;;;;;;0.80;0.77;;;;;;;28.09;28.74;100164.44;4430444;32;33490;-86
2022/06/18 10:57:24;;;;;;;1.05;0.60;;;;;;;28.44;28.88;100147.44;4433966;32;34272;-85
2022/06/18 10:59:53;;;;;;;4.40;0.93;;;;;;;28.85;26.58;100167.28;4431523;32;31692;-85
2022/06/18 11:02:34;;;;;;;0.75;0.40;;;;;;;28.74;27.07;100163.78;4437261;32;33526;-85
2022/06/18 11:05:05;;;;;;;0.50;0.40;;;;;;;28.50;26.04;100162.13;4437315;32;33556;-85
2022/06/18 11:07:34;;;;;;;1.00;0.60;;;;;;;28.07;26.28;100155.69;4437256;32;34471;-86
2022/06/18 11:10:08;;;;;;;0.77;0.50;;;;;;;28.75;26.97;100158.31;4441546;32;33695;-84
2022/06/18 11:12:39;;;;;;;2.40;0.60;;;;;;;28.64;27.47;100153.84;4444912;32;33863;-86
2022/06/18 11:15:24;;;;;;;0.43;0.40;;;;;;;28.97;27.43;100149.41;4444315;32;33393;-88
2022/06/18 11:17:54;;;;;;;1.23;0.73;;;;;;;28.88;27.09;100153.66;4450891;32;34246;-85
2022/06/18 11:20:25;;;;;;;1.35;0.70;;;;;;;28.84;27.02;100152.22;4443085;32;34384;-86
2022/06/18 11:22:56;;;;;;;1.30;0.57;;;;;;;28.74;27.34;100143.28;4430763;32;33026;-86
2022/06/18 11:25:31;;;;;;;0.50;0.50;;;;;;;28.48;28.60;100132.88;4445014;32;32801;-84
2022/06/18 11:28:05;;;;;;;1.17;0.55;;;;;;;28.80;30.95;100136.56;4443863;32;34547;-85
2022/06/18 11:30:42;;;;;;;2.50;0.95;;;;;;;28.98;27.74;100126.19;4445558;32;34479;-85
2022/06/18 11:33:23;;;;;;;0.95;0.57;;;;;;;29.06;27.48;100129.94;4451155;32;33494;-86
2022/06/18 11:35:51;;;;;;;1.13;0.70;;;;;;;29.51;27.05;100126.19;4445423;32;33296;-87
2022/06/18 11:38:29;;;;;;;0.43;0.32;;;;;;;29.61;27.32;100111.03;4445922;32;32803;-85
2022/06/18 11:41:03;;;;;;;1.70;0.68;;;;;;;29.42;25.83;100117.12;4443302;32;33856;-86
2022/06/18 11:43:40;;;;;;;0.55;0.40;;;;;;;30.16;26.56;100110.75;4442853;32;34027;-84
2022/06/18 11:46:12;;;;;;;1.40;0.60;;;;;;;30.04;25.25;100106.50;4457616;32;32220;-85
2022/06/18 11:48:51;;;;;;;0.52;0.50;;;;;;;29.89;25.37;100101.50;4447398;32;34448;-84
2022/06/18 11:51:24;;;;;;;0.68;0.50;;;;;;;30.50;24.67;100105.09;4448159;32;33925;-85
2022/06/18 11:54:01;;;;;;;0.73;0.50;;;;;;;30.75;24.86;100095.66;4445204;32;34735;-87
2022/06/18 11:56:40;;;;;;;0.77;0.57;;;;;;;30.91;24.84;100084.44;4443679;32;33085;-87
2022/06/18 11:59:17;;;;;;;1.20;0.60;;;;;;;30.82;25.17;100088.75;4444681;32;33018;-87
2022/06/18 12:01:50;;;;;;;2.28;0.80;;;;;;;31.16;22.98;100081.16;4445335;32;34992;-84
2022/06/18 12:04:27;;;;;;;0.57;0.30;;;;;;;30.90;24.92;100088.09;4444881;32;34362;-87